MEA250 OLBA-LGAV
Flight info
| Callsign | MEA250 |
|---|---|
| Flight time | N/A |
| Altitude | 32000 |
| Route | DCT KUKLA R19 LCA M601 EVENO UM601 RDS UL995 VARIX VARIX1Q |
| Aircraft | A21N/M-VGDW/C |
Departure
| Time | 2026-04-27 01:26 |
|---|---|
| Airport | Beirut Rafic Hariri International Airport (OLBA) |
Arrival
| Time | N/A |
|---|---|
| Airport | Athens Eleftherios Venizelos International Airport (LGAV) |
| Time | Latitude | Longitude | Altitude | Speed | Heading |
|---|---|---|---|---|---|
| 2026-04-27 01:02 | 33.82319 | 35.49421 | 45 ft | 0 kts | 311° |
| 2026-04-27 01:13 | 33.82314 | 35.49427 | 45 ft | 2 kts | 311° |
| 2026-04-27 01:14 | 33.82305 | 35.49440 | 45 ft | 2 kts | 311° |
| 2026-04-27 01:14 | 33.82296 | 35.49452 | 45 ft | 2 kts | 311° |
| 2026-04-27 01:14 | 33.82288 | 35.49464 | 44 ft | 2 kts | 314° |
| 2026-04-27 01:14 | 33.82276 | 35.49471 | 44 ft | 2 kts | 352° |
| 2026-04-27 01:15 | 33.82265 | 35.49471 | 44 ft | 2 kts | 18° |
| 2026-04-27 01:15 | 33.82258 | 35.49467 | 44 ft | 1 kts | 34° |
| 2026-04-27 01:15 | 33.82252 | 35.49462 | 43 ft | 1 kts | 36° |
| 2026-04-27 01:15 | 33.82252 | 35.49461 | 43 ft | 0 kts | 36° |
| 2026-04-27 01:18 | 33.82253 | 35.49462 | 43 ft | 1 kts | 36° |
| 2026-04-27 01:19 | 33.82265 | 35.49472 | 44 ft | 3 kts | 35° |
| 2026-04-27 01:19 | 33.82294 | 35.49497 | 44 ft | 6 kts | 34° |
| 2026-04-27 01:19 | 33.82331 | 35.49528 | 45 ft | 8 kts | 34° |
| 2026-04-27 01:19 | 33.82381 | 35.49570 | 45 ft | 11 kts | 34° |
| 2026-04-27 01:20 | 33.82441 | 35.49621 | 45 ft | 13 kts | 34° |
| 2026-04-27 01:20 | 33.82491 | 35.49663 | 45 ft | 15 kts | 34° |
| 2026-04-27 01:20 | 33.82575 | 35.49733 | 46 ft | 16 kts | 38° |
| 2026-04-27 01:20 | 33.82656 | 35.49807 | 50 ft | 15 kts | 36° |
| 2026-04-27 01:21 | 33.82751 | 35.49891 | 48 ft | 18 kts | 36° |
| 2026-04-27 01:21 | 33.82834 | 35.49963 | 52 ft | 16 kts | 36° |
| 2026-04-27 01:21 | 33.82911 | 35.50031 | 50 ft | 17 kts | 36° |
| 2026-04-27 01:21 | 33.82978 | 35.50089 | 51 ft | 13 kts | 39° |
| 2026-04-27 01:22 | 33.82997 | 35.50132 | 55 ft | 4 kts | 83° |
| 2026-04-27 01:22 | 33.82996 | 35.50147 | 56 ft | 1 kts | 100° |
| 2026-04-27 01:22 | 33.82991 | 35.50165 | 57 ft | 4 kts | 115° |
| 2026-04-27 01:22 | 33.82950 | 35.50202 | 57 ft | 12 kts | 165° |
| 2026-04-27 01:23 | 33.82883 | 35.50196 | 55 ft | 13 kts | 202° |
| 2026-04-27 01:23 | 33.82817 | 35.50150 | 54 ft | 10 kts | 211° |
| 2026-04-27 01:23 | 33.82764 | 35.50155 | 53 ft | 11 kts | 135° |
| 2026-04-27 01:23 | 33.82731 | 35.50211 | 52 ft | 0 kts | 122° |
| 2026-04-27 01:24 | 33.82731 | 35.50212 | 52 ft | 0 kts | 122° |
| 2026-04-27 01:24 | 33.82727 | 35.50219 | 52 ft | 2 kts | 122° |
| 2026-04-27 01:24 | 33.82712 | 35.50248 | 52 ft | 6 kts | 123° |
| 2026-04-27 01:25 | 33.82685 | 35.50283 | 51 ft | 7 kts | 153° |
| 2026-04-27 01:25 | 33.82639 | 35.50269 | 51 ft | 11 kts | 211° |
| 2026-04-27 01:25 | 33.82508 | 35.50170 | 48 ft | 56 kts | 213° |
| 2026-04-27 01:25 | 33.82120 | 35.49869 | 45 ft | 112 kts | 213° |
| 2026-04-27 01:26 | 33.79408 | 35.47757 | 951 ft | 187 kts | 213° |
| 2026-04-27 01:26 | 33.78268 | 35.46798 | 1748 ft | 190 kts | 220° |
| 2026-04-27 01:27 | 33.77237 | 35.44401 | 3075 ft | 188 kts | 268° |
| 2026-04-27 01:27 | 33.77488 | 35.42882 | 3802 ft | 187 kts | 296° |
| 2026-04-27 01:27 | 33.78276 | 35.41716 | 4450 ft | 188 kts | 323° |
| 2026-04-27 01:28 | 33.79404 | 35.40907 | 4977 ft | 197 kts | 336° |
| 2026-04-27 01:28 | 33.80745 | 35.40739 | 5459 ft | 206 kts | 17° |
| 2026-04-27 01:28 | 33.81994 | 35.41466 | 5990 ft | 211 kts | 27° |
| 2026-04-27 01:28 | 33.83467 | 35.42160 | 6337 ft | 221 kts | 12° |
| 2026-04-27 01:29 | 33.85010 | 35.42196 | 6662 ft | 231 kts | 343° |
| 2026-04-27 01:29 | 33.86399 | 35.41243 | 7008 ft | 240 kts | 312° |
| 2026-04-27 01:29 | 33.87223 | 35.39516 | 7374 ft | 249 kts | 282° |
| 2026-04-27 01:29 | 33.87499 | 35.37440 | 7783 ft | 257 kts | 280° |
| 2026-04-27 01:30 | 33.87940 | 35.35382 | 8147 ft | 267 kts | 289° |
| 2026-04-27 01:30 | 33.88641 | 35.33389 | 8584 ft | 273 kts | 296° |
| 2026-04-27 01:30 | 33.89600 | 35.31295 | 9056 ft | 280 kts | 301° |
| 2026-04-27 01:30 | 33.90628 | 35.29351 | 9499 ft | 286 kts | 303° |
| 2026-04-27 01:31 | 33.91732 | 35.27418 | 9941 ft | 289 kts | 305° |
| 2026-04-27 01:31 | 33.92867 | 35.25511 | 10380 ft | 290 kts | 306° |
| 2026-04-27 01:31 | 33.94024 | 35.23609 | 10817 ft | 293 kts | 306° |
| 2026-04-27 01:31 | 33.95238 | 35.21640 | 11347 ft | 295 kts | 306° |
| 2026-04-27 01:32 | 33.96461 | 35.19668 | 11853 ft | 297 kts | 307° |
| 2026-04-27 01:32 | 33.97668 | 35.17726 | 12314 ft | 300 kts | 307° |
| 2026-04-27 01:32 | 33.98819 | 35.15878 | 12728 ft | 304 kts | 307° |
| 2026-04-27 01:33 | 34.01014 | 35.12357 | 13504 ft | 310 kts | 307° |
| 2026-04-27 01:33 | 34.02262 | 35.10354 | 13939 ft | 313 kts | 307° |
| 2026-04-27 01:33 | 34.03898 | 35.07728 | 14503 ft | 318 kts | 307° |
| 2026-04-27 01:33 | 34.05218 | 35.05608 | 14998 ft | 328 kts | 307° |
| 2026-04-27 01:34 | 34.06431 | 35.03659 | 15464 ft | 336 kts | 307° |
| 2026-04-27 01:34 | 34.07787 | 35.01479 | 15972 ft | 344 kts | 307° |
| 2026-04-27 01:35 | 34.11999 | 34.94698 | 17477 ft | 366 kts | 307° |
| 2026-04-27 01:35 | 34.13460 | 34.92343 | 17933 ft | 373 kts | 307° |
| 2026-04-27 01:35 | 34.15287 | 34.89395 | 18491 ft | 381 kts | 307° |
| 2026-04-27 01:35 | 34.16784 | 34.86977 | 18939 ft | 387 kts | 307° |
| 2026-04-27 01:36 | 34.21264 | 34.79731 | 20244 ft | 401 kts | 307° |
| 2026-04-27 01:36 | 34.22762 | 34.77305 | 20672 ft | 404 kts | 307° |
| 2026-04-27 01:37 | 34.25779 | 34.72232 | 21545 ft | 408 kts | 304° |
| 2026-04-27 01:37 | 34.27479 | 34.69216 | 22051 ft | 409 kts | 304° |
| 2026-04-27 01:37 | 34.28770 | 34.66913 | 22435 ft | 410 kts | 304° |
| 2026-04-27 01:38 | 34.30265 | 34.64246 | 22880 ft | 410 kts | 304° |
| 2026-04-27 01:38 | 34.31779 | 34.61543 | 23331 ft | 409 kts | 304° |
| 2026-04-27 01:38 | 34.33275 | 34.58873 | 23778 ft | 408 kts | 304° |
| 2026-04-27 01:39 | 34.36142 | 34.53753 | 24636 ft | 405 kts | 304° |
| 2026-04-27 01:39 | 34.37658 | 34.51043 | 25092 ft | 403 kts | 304° |
| 2026-04-27 01:39 | 34.40572 | 34.45828 | 25977 ft | 398 kts | 304° |
| 2026-04-27 01:40 | 34.42050 | 34.43179 | 26431 ft | 395 kts | 304° |
| 2026-04-27 01:41 | 34.48000 | 34.32599 | 27877 ft | 389 kts | 304° |
| 2026-04-27 01:41 | 34.49649 | 34.29696 | 28047 ft | 393 kts | 304° |
| 2026-04-27 01:41 | 34.50952 | 34.27398 | 28167 ft | 396 kts | 304° |
| 2026-04-27 01:41 | 34.52421 | 34.24806 | 28308 ft | 399 kts | 304° |